createdAt,value
2023-01-05T00:00:03.513Z,10.31
2023-01-05T00:01:03.431Z,10.31
2023-01-05T00:02:04.450Z,10.31
2023-01-05T00:03:04.349Z,10.31
2023-01-05T00:04:04.364Z,10.31
2023-01-05T00:05:04.328Z,10.31
2023-01-05T00:06:04.230Z,10.31
2023-01-05T00:07:04.155Z,10.31
2023-01-05T00:08:04.316Z,10.31
2023-01-05T00:09:04.316Z,10.31
2023-01-05T00:10:04.307Z,10.31
2023-01-05T00:11:04.323Z,10.31
2023-01-05T00:12:04.320Z,10.25
2023-01-05T00:13:04.319Z,10.25
2023-01-05T00:14:04.231Z,10.25
2023-01-05T00:15:04.332Z,10.25
2023-01-05T00:16:04.372Z,10.25
2023-01-05T00:17:04.323Z,10.25
2023-01-05T00:18:03.756Z,10.25
2023-01-05T00:19:03.591Z,10.25
2023-01-05T00:20:03.717Z,10.25
2023-01-05T00:21:03.756Z,10.25
2023-01-05T00:22:03.692Z,10.31
2023-01-05T00:23:03.672Z,10.31
2023-01-05T00:24:03.558Z,10.31
2023-01-05T00:25:09.193Z,10.25
2023-01-05T00:26:03.518Z,10.25
2023-01-05T00:27:03.508Z,10.25
2023-01-05T00:28:03.675Z,10.31
2023-01-05T00:29:03.677Z,10.31
2023-01-05T00:30:03.662Z,10.31
2023-01-05T00:31:03.595Z,10.31
2023-01-05T00:32:03.748Z,10.25
2023-01-05T00:33:03.672Z,10.25
2023-01-05T00:34:03.674Z,10.25
2023-01-05T00:35:03.761Z,10.25
2023-01-05T00:36:03.593Z,10.25
2023-01-05T00:37:03.509Z,10.25
2023-01-05T00:38:03.589Z,10.25
2023-01-05T00:39:03.640Z,10.25
2023-01-05T00:40:03.588Z,10.19
2023-01-05T00:41:03.517Z,10.19
2023-01-05T00:42:04.415Z,10.19
2023-01-05T00:43:04.485Z,10.19
2023-01-05T00:44:04.424Z,10.19
2023-01-05T00:45:03.537Z,10.19
2023-01-05T00:46:04.516Z,10.19
2023-01-05T00:47:03.680Z,10.19
2023-01-05T00:48:03.611Z,10.19
2023-01-05T00:49:04.492Z,10.19
2023-01-05T00:50:04.320Z,10.19
2023-01-05T00:51:04.474Z,10.19
2023-01-05T00:52:04.425Z,10.19
2023-01-05T00:53:04.325Z,10.19
2023-01-05T00:54:04.242Z,10.25
2023-01-05T00:55:04.149Z,10.25
2023-01-05T00:56:04.153Z,10.25
2023-01-05T00:57:04.292Z,10.25
2023-01-05T00:58:04.122Z,10.25
2023-01-05T00:59:04.246Z,10.25
2023-01-05T01:00:04.157Z,10.25
2023-01-05T01:01:04.225Z,10.25
2023-01-05T01:02:04.174Z,10.25
2023-01-05T01:03:04.124Z,10.25
2023-01-05T01:04:04.173Z,10.25
2023-01-05T01:05:04.094Z,10.25
2023-01-05T01:06:04.095Z,10.25
2023-01-05T01:07:04.007Z,10.31
2023-01-05T01:08:03.827Z,10.31
2023-01-05T01:09:03.880Z,10.31
2023-01-05T01:10:04.029Z,10.31
2023-01-05T01:11:04.078Z,10.31
2023-01-05T01:12:04.075Z,10.31
2023-01-05T01:13:03.913Z,10.38
2023-01-05T01:14:03.910Z,10.38
2023-01-05T01:15:04.016Z,10.38
2023-01-05T01:16:03.823Z,10.38
2023-01-05T01:17:04.038Z,10.38
2023-01-05T01:18:04.100Z,10.31
2023-01-05T01:19:05.482Z,10.38
2023-01-05T01:20:03.829Z,10.38
2023-01-05T01:21:03.947Z,10.38
2023-01-05T01:22:03.840Z,10.38
2023-01-05T01:23:03.749Z,10.38
2023-01-05T01:24:03.671Z,10.38
2023-01-05T01:25:03.585Z,10.38
2023-01-05T01:26:03.676Z,10.38
2023-01-05T01:27:03.670Z,10.38
2023-01-05T01:28:03.758Z,10.44
2023-01-05T01:29:03.752Z,10.44
2023-01-05T01:30:03.671Z,10.44
2023-01-05T01:31:03.723Z,10.44
2023-01-05T01:32:03.589Z,10.44
2023-01-05T01:33:03.507Z,10.44
2023-01-05T01:34:03.512Z,10.38
2023-01-05T01:35:03.513Z,10.38
2023-01-05T01:36:03.542Z,10.38
2023-01-05T01:37:03.438Z,10.44
2023-01-05T01:38:03.439Z,10.38
2023-01-05T01:39:03.425Z,10.38
2023-01-05T01:40:03.579Z,10.38
2023-01-05T01:41:03.516Z,10.44
2023-01-05T01:42:03.617Z,10.44
2023-01-05T01:43:03.518Z,10.44
2023-01-05T01:44:04.384Z,10.44
2023-01-05T01:45:04.385Z,10.44
2023-01-05T01:46:04.419Z,10.44
2023-01-05T01:47:04.296Z,10.44
2023-01-05T01:48:04.226Z,10.44
2023-01-05T01:49:04.234Z,10.44
2023-01-05T01:50:03.606Z,10.44
2023-01-05T01:51:07.940Z,10.44
2023-01-05T01:52:03.425Z,10.44
2023-01-05T01:53:03.428Z,10.50
2023-01-05T01:54:04.401Z,10.50
2023-01-05T01:55:04.399Z,10.50
2023-01-05T01:56:04.394Z,10.50
2023-01-05T01:57:04.313Z,10.50
2023-01-05T01:58:04.339Z,10.50
2023-01-05T01:59:04.315Z,10.50
2023-01-05T02:00:04.316Z,10.50
2023-01-05T02:01:04.382Z,10.44
2023-01-05T02:02:04.306Z,10.50
2023-01-05T02:03:04.159Z,10.50
2023-01-05T02:04:04.099Z,10.50
2023-01-05T02:05:04.007Z,10.50
2023-01-05T02:06:03.993Z,10.50
2023-01-05T02:07:03.917Z,10.50
2023-01-05T02:08:03.908Z,10.50
2023-01-05T02:09:04.172Z,10.50
2023-01-05T02:10:04.070Z,10.50
2023-01-05T02:11:04.069Z,10.56
2023-01-05T02:12:03.991Z,10.56
2023-01-05T02:13:03.988Z,10.50
2023-01-05T02:14:04.005Z,10.56
2023-01-05T02:15:04.038Z,10.56
2023-01-05T02:16:03.993Z,10.56
2023-01-05T02:17:04.085Z,10.50
2023-01-05T02:18:04.081Z,10.56
2023-01-05T02:19:04.073Z,10.56
2023-01-05T02:20:04.109Z,10.56
2023-01-05T02:21:03.914Z,10.56
2023-01-05T02:22:03.837Z,10.56
2023-01-05T02:23:03.827Z,10.56
2023-01-05T02:24:04.150Z,10.56
2023-01-05T02:25:03.687Z,10.56
2023-01-05T02:26:03.689Z,10.56
2023-01-05T02:27:03.604Z,10.56
2023-01-05T02:28:03.508Z,10.56
2023-01-05T02:29:03.444Z,10.56
2023-01-05T02:30:04.384Z,10.56
2023-01-05T02:31:04.287Z,10.56
2023-01-05T02:32:04.156Z,10.50
2023-01-05T02:33:04.225Z,10.56
2023-01-05T02:34:04.141Z,10.56
2023-01-05T02:35:04.257Z,10.56
2023-01-05T02:36:04.181Z,10.56
2023-01-05T02:37:04.220Z,10.56
2023-01-05T02:38:04.149Z,10.56
2023-01-05T02:39:04.162Z,10.50
2023-01-05T02:40:04.147Z,10.50
2023-01-05T02:41:04.011Z,10.50
2023-01-05T02:42:04.071Z,10.50
2023-01-05T02:43:03.909Z,10.50
2023-01-05T02:44:04.199Z,10.44
2023-01-05T02:45:03.845Z,10.44
2023-01-05T02:46:03.846Z,10.44
2023-01-05T02:47:03.740Z,10.44
2023-01-05T02:48:03.621Z,10.44
2023-01-05T02:49:03.509Z,10.44
2023-01-05T02:50:03.432Z,10.44
2023-01-05T02:51:03.517Z,10.38
2023-01-05T02:52:03.514Z,10.38
2023-01-05T02:53:03.521Z,10.38
2023-01-05T02:54:04.487Z,10.38
2023-01-05T02:55:04.401Z,10.38
2023-01-05T02:56:04.533Z,10.38
2023-01-05T02:57:04.323Z,10.38
2023-01-05T02:58:04.316Z,10.38
2023-01-05T02:59:04.317Z,10.31
2023-01-05T03:00:04.256Z,10.31
2023-01-05T03:01:04.265Z,10.31
2023-01-05T03:02:04.269Z,10.31
2023-01-05T03:03:04.338Z,10.31
2023-01-05T03:04:04.153Z,10.31
2023-01-05T03:05:04.237Z,10.31
2023-01-05T03:06:04.157Z,10.31
2023-01-05T03:07:04.239Z,10.31
2023-01-05T03:08:04.146Z,10.31
2023-01-05T03:09:04.237Z,10.31
2023-01-05T03:10:04.155Z,10.31
2023-01-05T03:11:04.072Z,10.25
2023-01-05T03:12:04.172Z,10.31
2023-01-05T03:13:04.098Z,10.31
2023-01-05T03:14:03.921Z,10.31
2023-01-05T03:15:03.913Z,10.25
2023-01-05T03:16:03.938Z,10.25
2023-01-05T03:17:03.932Z,10.25
2023-01-05T03:18:03.840Z,10.25
2023-01-05T03:19:03.831Z,10.25
2023-01-05T03:20:03.767Z,10.25
2023-01-05T03:21:03.765Z,10.25
2023-01-05T03:22:03.671Z,10.25
2023-01-05T03:23:03.513Z,10.25
2023-01-05T03:24:03.511Z,10.25
2023-01-05T03:25:03.569Z,10.19
2023-01-05T03:26:03.430Z,10.25
2023-01-05T03:27:04.474Z,10.19
2023-01-05T03:28:04.395Z,10.19
2023-01-05T03:29:04.386Z,10.19
2023-01-05T03:30:03.427Z,10.19
2023-01-05T03:31:04.515Z,10.19
2023-01-05T03:32:04.321Z,10.19
2023-01-05T03:33:04.230Z,10.19
2023-01-05T03:34:04.235Z,10.19
2023-01-05T03:35:04.224Z,10.19
2023-01-05T03:36:04.168Z,10.19
2023-01-05T03:37:04.148Z,10.19
2023-01-05T03:38:04.088Z,10.19
2023-01-05T03:39:04.025Z,10.19
2023-01-05T03:40:04.152Z,10.12
2023-01-05T03:41:04.160Z,10.19
2023-01-05T03:42:04.005Z,10.19
2023-01-05T03:43:04.007Z,10.12
2023-01-05T03:44:04.087Z,10.19
2023-01-05T03:45:04.013Z,10.19
2023-01-05T03:46:03.936Z,10.19
2023-01-05T03:47:03.916Z,10.12
2023-01-05T03:48:04.030Z,10.19
2023-01-05T03:49:04.012Z,10.12
2023-01-05T03:50:03.944Z,10.19
2023-01-05T03:51:03.943Z,10.12
2023-01-05T03:52:03.928Z,10.19
2023-01-05T03:53:03.755Z,10.19
2023-01-05T03:54:03.833Z,10.19
2023-01-05T03:55:03.749Z,10.19
2023-01-05T03:56:03.678Z,10.19
2023-01-05T03:57:03.677Z,10.19
2023-01-05T03:58:03.940Z,10.19
2023-01-05T03:59:03.825Z,10.19
2023-01-05T04:00:03.854Z,10.19
2023-01-05T04:01:03.937Z,10.19
2023-01-05T04:02:03.867Z,10.19
2023-01-05T04:03:03.928Z,10.19
2023-01-05T04:04:03.653Z,10.19
2023-01-05T04:05:03.594Z,10.19
2023-01-05T04:06:03.517Z,10.19
2023-01-05T04:07:03.517Z,10.19
2023-01-05T04:08:03.433Z,10.19
2023-01-05T04:09:03.511Z,10.19
2023-01-05T04:10:04.396Z,10.19
2023-01-05T04:11:03.425Z,10.19
2023-01-05T04:12:03.517Z,10.19
2023-01-05T04:13:04.420Z,10.19
2023-01-05T04:14:03.750Z,10.19
2023-01-05T04:15:03.678Z,10.19
2023-01-05T04:16:03.658Z,10.19
2023-01-05T04:17:03.589Z,10.19
2023-01-05T04:18:03.671Z,10.19
2023-01-05T04:19:03.504Z,10.19
2023-01-05T04:20:03.513Z,10.19
2023-01-05T04:21:03.435Z,10.19
2023-01-05T04:22:04.395Z,10.19
2023-01-05T04:23:04.388Z,10.19
2023-01-05T04:24:04.310Z,10.19
2023-01-05T04:25:04.360Z,10.12
2023-01-05T04:26:04.382Z,10.12
2023-01-05T04:27:04.248Z,10.12
2023-01-05T04:28:04.236Z,10.12
2023-01-05T04:29:04.158Z,10.12
2023-01-05T04:30:03.609Z,10.19
2023-01-05T04:31:03.586Z,10.12
2023-01-05T04:32:03.758Z,10.12
2023-01-05T04:33:03.676Z,10.12
2023-01-05T04:34:03.764Z,10.12
2023-01-05T04:35:10.546Z,10.12
2023-01-05T04:36:03.759Z,10.12
2023-01-05T04:37:03.676Z,10.12
2023-01-05T04:38:03.591Z,10.12
2023-01-05T04:39:03.593Z,10.12
2023-01-05T04:40:03.516Z,10.12
2023-01-05T04:41:04.398Z,10.12
2023-01-05T04:42:04.403Z,10.12
2023-01-05T04:43:04.398Z,10.12
2023-01-05T04:44:04.415Z,10.12
2023-01-05T04:45:04.243Z,10.12
2023-01-05T04:46:04.360Z,10.12
2023-01-05T04:47:04.238Z,10.06
2023-01-05T04:48:03.684Z,10.12
2023-01-05T04:49:03.612Z,10.06
2023-01-05T04:50:03.594Z,10.06
2023-01-05T04:51:03.556Z,10.06
2023-01-05T04:52:03.511Z,10.06
2023-01-05T04:53:04.402Z,10.06
2023-01-05T04:54:04.395Z,10.06
2023-01-05T04:55:04.431Z,10.06
2023-01-05T04:56:04.428Z,10.06
2023-01-05T04:57:04.322Z,10.06
2023-01-05T04:58:06.865Z,10.06
2023-01-05T04:59:04.393Z,10.06
2023-01-05T05:00:04.231Z,10.06
2023-01-05T05:01:04.343Z,10.06
2023-01-05T05:02:04.288Z,10.06
2023-01-05T05:03:04.069Z,10.06
2023-01-05T05:04:04.085Z,10.06
2023-01-05T05:05:04.072Z,10.06
2023-01-05T05:06:04.005Z,10.06
2023-01-05T05:07:03.907Z,10.06
2023-01-05T05:08:03.844Z,10.06
2023-01-05T05:09:03.752Z,10.06
2023-01-05T05:10:03.750Z,10.06
2023-01-05T05:11:03.681Z,10.06
2023-01-05T05:12:03.591Z,10.06
2023-01-05T05:13:03.608Z,10.06
2023-01-05T05:14:03.526Z,10.06
2023-01-05T05:15:04.474Z,10.00
2023-01-05T05:16:04.495Z,10.00
2023-01-05T05:17:04.393Z,10.00
2023-01-05T05:18:08.855Z,10.00
2023-01-05T05:19:04.227Z,10.00
2023-01-05T05:20:04.154Z,10.00
2023-01-05T05:21:04.076Z,10.00
2023-01-05T05:22:03.984Z,10.00
2023-01-05T05:23:04.021Z,10.00
2023-01-05T05:24:03.915Z,10.00
2023-01-05T05:25:04.209Z,9.94
2023-01-05T05:26:03.911Z,9.94
2023-01-05T05:27:03.834Z,9.94
2023-01-05T05:28:03.745Z,9.94
2023-01-05T05:29:03.760Z,9.94
2023-01-05T05:30:03.671Z,9.94
2023-01-05T05:31:03.788Z,9.94
2023-01-05T05:32:03.599Z,9.94
2023-01-05T05:33:03.758Z,9.94
2023-01-05T05:34:03.685Z,9.94
2023-01-05T05:35:03.525Z,9.94
2023-01-05T05:36:03.699Z,9.94
2023-01-05T05:37:03.509Z,9.88
2023-01-05T05:38:03.758Z,9.88
2023-01-05T05:39:03.748Z,9.88
2023-01-05T05:40:03.930Z,9.88
2023-01-05T05:41:03.990Z,9.88
2023-01-05T05:42:03.934Z,9.81
2023-01-05T05:43:03.835Z,9.81
2023-01-05T05:44:04.145Z,9.81
2023-01-05T05:45:04.063Z,9.75
2023-01-05T05:46:04.003Z,9.75
2023-01-05T05:47:04.006Z,9.75
2023-01-05T05:48:03.921Z,9.69
2023-01-05T05:49:03.909Z,9.69
2023-01-05T05:50:04.025Z,9.69
2023-01-05T05:51:03.927Z,9.69
2023-01-05T05:52:03.909Z,9.69
2023-01-05T05:53:03.842Z,9.69
2023-01-05T05:54:03.742Z,9.62
2023-01-05T05:55:03.673Z,9.62
2023-01-05T05:56:04.506Z,9.62
2023-01-05T05:57:04.484Z,9.62
2023-01-05T05:58:04.415Z,9.56
2023-01-05T05:59:04.358Z,9.56
2023-01-05T06:00:03.605Z,9.56
2023-01-05T06:01:03.578Z,9.56
2023-01-05T06:02:03.813Z,9.56
2023-01-05T06:03:03.734Z,9.56
2023-01-05T06:04:03.514Z,9.56
2023-01-05T06:05:04.495Z,9.50
2023-01-05T06:06:04.407Z,9.50
2023-01-05T06:07:04.324Z,9.50
2023-01-05T06:08:06.494Z,9.50
2023-01-05T06:09:04.433Z,9.44
2023-01-05T06:10:04.523Z,9.44
2023-01-05T06:11:04.282Z,9.44
2023-01-05T06:12:04.320Z,9.44
2023-01-05T06:13:04.277Z,9.44
2023-01-05T06:14:04.158Z,9.38
2023-01-05T06:15:04.066Z,9.38
2023-01-05T06:16:04.097Z,9.38
2023-01-05T06:17:04.103Z,9.38
2023-01-05T06:18:04.081Z,9.38
2023-01-05T06:19:03.997Z,9.38
2023-01-05T06:20:03.963Z,9.38
2023-01-05T06:21:04.015Z,9.31
2023-01-05T06:22:04.121Z,9.31
2023-01-05T06:23:03.928Z,9.31
2023-01-05T06:24:04.005Z,9.31
2023-01-05T06:25:03.836Z,9.31
2023-01-05T06:26:03.750Z,9.31
2023-01-05T06:27:03.752Z,9.31
2023-01-05T06:28:03.672Z,9.31
2023-01-05T06:29:04.266Z,9.25
2023-01-05T06:30:04.163Z,9.25
2023-01-05T06:31:03.751Z,9.25
2023-01-05T06:32:03.671Z,9.25
2023-01-05T06:33:03.591Z,9.25
2023-01-05T06:34:03.605Z,9.25
2023-01-05T06:35:03.530Z,9.19
2023-01-05T06:36:03.527Z,9.19
2023-01-05T06:37:03.528Z,9.19
2023-01-05T06:38:04.434Z,9.19
2023-01-05T06:39:03.595Z,9.19
2023-01-05T06:40:03.516Z,9.19
2023-01-05T06:41:03.445Z,9.19
2023-01-05T06:42:04.474Z,9.19
2023-01-05T06:43:04.324Z,9.12
2023-01-05T06:44:04.420Z,9.12
2023-01-05T06:45:04.236Z,9.12
2023-01-05T06:46:04.272Z,9.06
2023-01-05T06:47:04.162Z,9.12
2023-01-05T06:48:04.067Z,9.12
2023-01-05T06:49:04.086Z,9.06
2023-01-05T06:50:04.090Z,9.06
2023-01-05T06:51:03.984Z,9.06
2023-01-05T06:52:04.089Z,9.06
2023-01-05T06:53:03.944Z,9.00
2023-01-05T06:54:04.224Z,9.00
2023-01-05T06:55:04.179Z,9.00
2023-01-05T06:56:04.331Z,9.00
2023-01-05T06:57:04.425Z,9.00
2023-01-05T06:58:04.808Z,8.94
2023-01-05T06:59:03.664Z,8.94
2023-01-05T07:00:03.664Z,8.94
2023-01-05T07:01:03.731Z,8.94
2023-01-05T07:02:03.683Z,8.94
2023-01-05T07:03:03.431Z,8.94
2023-01-05T07:04:03.531Z,8.94
2023-01-05T07:05:04.393Z,8.88
2023-01-05T07:06:05.982Z,8.88
2023-01-05T07:07:04.305Z,8.88
2023-01-05T07:08:04.251Z,8.88
2023-01-05T07:09:04.312Z,8.88
2023-01-05T07:10:04.317Z,8.88
2023-01-05T07:11:04.635Z,8.88
2023-01-05T07:12:04.338Z,8.88
2023-01-05T07:13:09.331Z,8.81
2023-01-05T07:14:04.398Z,8.88
2023-01-05T07:15:04.061Z,8.88
2023-01-05T07:16:04.183Z,8.88
2023-01-05T07:17:04.008Z,8.88
2023-01-05T07:18:04.011Z,8.81
2023-01-05T07:19:04.023Z,8.81
2023-01-05T07:20:04.001Z,8.88
2023-01-05T07:21:03.919Z,8.81
2023-01-05T07:22:03.915Z,8.88
2023-01-05T07:23:03.994Z,8.81
2023-01-05T07:24:03.909Z,8.81
2023-01-05T07:25:03.840Z,8.81
2023-01-05T07:26:03.752Z,8.81
2023-01-05T07:27:09.380Z,8.88
2023-01-05T07:28:03.917Z,8.81
2023-01-05T07:29:03.827Z,8.88
2023-01-05T07:30:03.856Z,8.88
2023-01-05T07:31:04.287Z,8.88
2023-01-05T07:32:03.917Z,8.88
2023-01-05T07:33:03.822Z,8.88
2023-01-05T07:34:03.856Z,8.88
2023-01-05T07:35:03.784Z,8.88
2023-01-05T07:36:03.749Z,8.88
2023-01-05T07:37:03.692Z,8.88
2023-01-05T07:38:03.671Z,8.94
2023-01-05T07:39:03.583Z,8.94
2023-01-05T07:40:03.591Z,8.94
2023-01-05T07:41:03.608Z,8.94
2023-01-05T07:42:03.535Z,8.94
2023-01-05T07:43:04.089Z,8.94
2023-01-05T07:44:03.999Z,8.94
2023-01-05T07:45:03.921Z,8.94
2023-01-05T07:46:04.066Z,8.94
2023-01-05T07:47:03.993Z,8.94
2023-01-05T07:48:03.835Z,8.94
2023-01-05T07:49:03.751Z,9.00
2023-01-05T07:50:03.754Z,8.94
2023-01-05T07:51:03.679Z,9.00
2023-01-05T07:52:03.757Z,9.00
2023-01-05T07:53:03.515Z,9.00
2023-01-05T07:54:03.429Z,9.00
2023-01-05T07:55:04.420Z,9.00
2023-01-05T07:56:03.515Z,9.00
2023-01-05T07:57:03.427Z,9.00
2023-01-05T07:58:04.488Z,9.00
2023-01-05T07:59:04.340Z,9.00
2023-01-05T08:00:04.358Z,9.06
2023-01-05T08:01:04.418Z,9.06
2023-01-05T08:02:04.470Z,9.00
2023-01-05T08:03:04.309Z,9.00
2023-01-05T08:04:04.391Z,9.06
2023-01-05T08:05:04.240Z,9.00
2023-01-05T08:06:04.074Z,9.00
2023-01-05T08:07:04.062Z,9.06
2023-01-05T08:08:04.083Z,9.06
2023-01-05T08:09:04.029Z,9.06
2023-01-05T08:10:03.907Z,9.06
2023-01-05T08:11:03.982Z,9.06
2023-01-05T08:12:03.994Z,9.06
2023-01-05T08:13:03.934Z,9.06
2023-01-05T08:14:03.937Z,9.06
2023-01-05T08:15:03.753Z,9.06
2023-01-05T08:16:03.838Z,9.06
2023-01-05T08:17:03.697Z,9.06
2023-01-05T08:18:03.761Z,9.06
2023-01-05T08:19:07.842Z,9.06
2023-01-05T08:20:03.592Z,9.06
2023-01-05T08:21:03.595Z,9.06
2023-01-05T08:22:03.679Z,9.06
2023-01-05T08:23:03.524Z,9.06
2023-01-05T08:24:03.600Z,9.12
2023-01-05T08:25:03.524Z,9.12
2023-01-05T08:26:04.395Z,9.12
2023-01-05T08:27:04.451Z,9.12
2023-01-05T08:28:04.333Z,9.12
2023-01-05T08:29:04.367Z,9.12
2023-01-05T08:30:04.148Z,9.19
2023-01-05T08:31:04.147Z,9.19
2023-01-05T08:32:04.279Z,9.19
2023-01-05T08:33:03.994Z,9.19
2023-01-05T08:34:03.910Z,9.19
2023-01-05T08:35:03.841Z,9.19
2023-01-05T08:36:03.746Z,9.25
2023-01-05T08:37:03.672Z,9.25
2023-01-05T08:38:03.689Z,9.31
2023-01-05T08:39:03.592Z,9.25
2023-01-05T08:40:03.620Z,9.31
2023-01-05T08:41:03.521Z,9.31
2023-01-05T08:42:03.527Z,9.31
2023-01-05T08:43:04.391Z,9.38
2023-01-05T08:44:04.321Z,9.31
2023-01-05T08:45:04.312Z,9.38
2023-01-05T08:46:04.229Z,9.38
2023-01-05T08:47:04.253Z,9.38
2023-01-05T08:48:04.146Z,9.38
2023-01-05T08:49:04.152Z,9.31
2023-01-05T08:50:04.096Z,9.38
2023-01-05T08:51:04.110Z,9.38
2023-01-05T08:52:04.087Z,9.38
2023-01-05T08:53:04.064Z,9.38
2023-01-05T08:54:04.011Z,9.38
2023-01-05T08:55:04.000Z,9.38
2023-01-05T08:56:03.837Z,9.44
2023-01-05T08:57:03.830Z,9.44
2023-01-05T08:58:03.831Z,9.44
2023-01-05T08:59:03.831Z,9.44
2023-01-05T09:00:03.835Z,9.44
2023-01-05T09:01:03.898Z,9.44
2023-01-05T09:02:03.986Z,9.44
2023-01-05T09:03:03.966Z,9.44
2023-01-05T09:04:03.668Z,9.44
2023-01-05T09:05:03.671Z,9.50
2023-01-05T09:06:03.586Z,9.50
2023-01-05T09:07:03.517Z,9.50
2023-01-05T09:08:03.529Z,9.50
2023-01-05T09:09:04.392Z,9.50
2023-01-05T09:10:03.553Z,9.50
2023-01-05T09:11:04.390Z,9.56
2023-01-05T09:12:04.439Z,9.56
2023-01-05T09:13:04.399Z,9.56
2023-01-05T09:14:04.407Z,9.56
2023-01-05T09:15:04.237Z,9.56
2023-01-05T09:16:04.329Z,9.56
2023-01-05T09:17:07.270Z,9.56
2023-01-05T09:18:04.242Z,9.62
2023-01-05T09:19:04.067Z,9.62
2023-01-05T09:20:04.006Z,9.62
2023-01-05T09:21:03.915Z,9.62
2023-01-05T09:22:03.917Z,9.62
2023-01-05T09:23:03.828Z,9.62
2023-01-05T09:24:03.828Z,9.62
2023-01-05T09:25:03.745Z,9.62
2023-01-05T09:26:03.764Z,9.62
2023-01-05T09:27:03.687Z,9.69
2023-01-05T09:28:03.678Z,9.69
2023-01-05T09:29:03.662Z,9.69
2023-01-05T09:30:04.758Z,9.75
2023-01-05T09:31:03.598Z,9.75
2023-01-05T09:32:03.514Z,9.75
2023-01-05T09:33:04.458Z,9.81
2023-01-05T09:34:04.398Z,9.81
2023-01-05T09:35:04.310Z,9.81
2023-01-05T09:36:04.337Z,9.81
2023-01-05T09:37:04.230Z,9.81
2023-01-05T09:38:04.145Z,9.81
2023-01-05T09:39:04.088Z,9.81
2023-01-05T09:40:04.073Z,9.81
2023-01-05T09:41:04.106Z,9.88
2023-01-05T09:42:04.144Z,9.88
2023-01-05T09:43:04.070Z,9.88
2023-01-05T09:44:03.984Z,9.88
2023-01-05T09:45:03.903Z,9.88
2023-01-05T09:46:03.879Z,9.88
2023-01-05T09:47:03.771Z,9.88
2023-01-05T09:48:03.667Z,9.88
2023-01-05T09:49:03.601Z,9.94
2023-01-05T09:50:03.595Z,9.94
2023-01-05T09:51:03.612Z,9.94
2023-01-05T09:52:03.515Z,9.94
2023-01-05T09:53:04.651Z,9.94
2023-01-05T09:54:03.584Z,9.94
2023-01-05T09:55:03.599Z,9.94
2023-01-05T09:56:03.508Z,9.94
2023-01-05T09:57:09.365Z,10.00
2023-01-05T09:58:04.405Z,10.00
2023-01-05T09:59:04.386Z,10.00
2023-01-05T10:00:04.319Z,10.00
2023-01-05T10:01:04.439Z,10.00
2023-01-05T10:02:04.234Z,10.06
2023-01-05T10:03:04.263Z,10.06
2023-01-05T10:04:04.782Z,10.06
2023-01-05T10:05:04.296Z,10.06
2023-01-05T10:06:04.259Z,10.06
2023-01-05T10:07:04.238Z,10.06
2023-01-05T10:08:04.152Z,10.06
2023-01-05T10:09:04.068Z,10.06
2023-01-05T10:10:04.076Z,10.06
2023-01-05T10:11:04.071Z,10.12
2023-01-05T10:12:04.191Z,10.12
2023-01-05T10:13:04.171Z,10.12
2023-01-05T10:14:03.985Z,10.12
2023-01-05T10:15:03.936Z,10.12
2023-01-05T10:16:03.904Z,10.12
2023-01-05T10:17:38.924Z,10.12
2023-01-05T10:18:04.075Z,10.19
2023-01-05T10:19:03.920Z,10.19
2023-01-05T10:20:03.915Z,10.19
2023-01-05T10:21:03.838Z,10.19
2023-01-05T10:22:03.907Z,10.19
2023-01-05T10:23:03.833Z,10.25
2023-01-05T10:24:03.754Z,10.25
2023-01-05T10:25:03.752Z,10.25
2023-01-05T10:26:03.848Z,10.31
2023-01-05T10:27:25.765Z,10.31
2023-01-05T10:28:03.755Z,10.31
2023-01-05T10:29:03.690Z,10.38
2023-01-05T10:30:03.621Z,10.38
2023-01-05T10:31:03.570Z,10.38
2023-01-05T10:32:03.514Z,10.38
2023-01-05T10:33:22.423Z,10.38
2023-01-05T10:34:05.509Z,10.38
2023-01-05T10:35:03.544Z,10.44
2023-01-05T10:36:06.329Z,10.44
2023-01-05T10:37:08.259Z,10.44
2023-01-05T10:38:03.598Z,10.44
2023-01-05T10:39:03.599Z,10.50
2023-01-05T10:40:03.673Z,10.50
2023-01-05T10:41:03.587Z,10.50
2023-01-05T10:42:03.593Z,10.50
2023-01-05T10:43:03.424Z,10.50
2023-01-05T10:44:04.472Z,10.50
2023-01-05T10:45:04.439Z,10.50
2023-01-05T10:46:30.935Z,10.50
2023-01-05T10:47:04.041Z,10.56
2023-01-05T10:48:03.912Z,10.56
2023-01-05T10:49:03.833Z,10.56
2023-01-05T10:50:03.918Z,10.56
2023-01-05T10:51:03.918Z,10.56
2023-01-05T10:52:03.826Z,10.56
2023-01-05T10:53:03.955Z,10.56
2023-01-05T10:54:03.697Z,10.56
2023-01-05T10:55:03.760Z,10.56
2023-01-05T10:56:03.590Z,10.56
2023-01-05T10:57:03.681Z,10.56
2023-01-05T10:58:03.750Z,10.50
2023-01-05T10:59:03.670Z,10.56
2023-01-05T11:00:03.771Z,10.56
2023-01-05T11:01:03.652Z,10.56
2023-01-05T11:02:03.750Z,10.56
2023-01-05T11:03:03.508Z,10.56
2023-01-05T11:04:33.619Z,10.56
2023-01-05T11:05:04.435Z,10.56
2023-01-05T11:06:04.313Z,10.56
2023-01-05T11:07:04.368Z,10.56
2023-01-05T11:08:04.245Z,10.56
2023-01-05T11:09:04.146Z,10.56
2023-01-05T11:10:04.154Z,10.56
2023-01-05T11:11:04.099Z,10.56
2023-01-05T11:12:04.009Z,10.56
2023-01-05T11:13:03.964Z,10.56
2023-01-05T11:14:03.905Z,10.56
2023-01-05T11:15:03.828Z,10.56
2023-01-05T11:16:03.895Z,10.56
2023-01-05T11:17:03.914Z,10.56
2023-01-05T11:18:04.089Z,10.56
2023-01-05T11:19:03.905Z,10.56
2023-01-05T11:20:03.916Z,10.56
2023-01-05T11:21:03.752Z,10.56
2023-01-05T11:22:03.796Z,10.56
2023-01-05T11:23:03.777Z,10.56
2023-01-05T11:24:03.759Z,10.62
2023-01-05T11:25:03.598Z,10.62
2023-01-05T11:26:03.598Z,10.69
2023-01-05T11:27:03.453Z,10.69
2023-01-05T11:28:05.364Z,10.69
2023-01-05T11:29:04.391Z,10.75
2023-01-05T11:30:04.251Z,10.75
2023-01-05T11:31:04.330Z,10.75
2023-01-05T11:32:04.250Z,10.75
2023-01-05T11:33:04.277Z,10.75
2023-01-05T11:34:04.173Z,10.75
2023-01-05T11:35:04.015Z,10.75
2023-01-05T11:36:03.915Z,10.75
2023-01-05T11:37:07.751Z,10.75
2023-01-05T11:38:03.831Z,10.75
2023-01-05T11:39:03.767Z,10.81
2023-01-05T11:40:03.702Z,10.81
2023-01-05T11:41:03.752Z,10.81
2023-01-05T11:42:03.764Z,10.88
2023-01-05T11:43:03.592Z,10.88
2023-01-05T11:44:03.522Z,10.81
2023-01-05T11:45:04.401Z,10.81
2023-01-05T11:46:04.474Z,10.81
2023-01-05T11:47:04.418Z,10.81
2023-01-05T11:48:04.317Z,10.81
2023-01-05T11:49:04.317Z,10.75
2023-01-05T11:50:09.036Z,10.75
2023-01-05T11:51:04.445Z,10.75
2023-01-05T11:52:04.248Z,10.75
2023-01-05T11:53:04.255Z,10.75
2023-01-05T11:54:04.272Z,10.75
2023-01-05T11:55:04.317Z,10.75
2023-01-05T11:56:04.352Z,10.69
2023-01-05T11:57:04.317Z,10.69
2023-01-05T11:58:04.325Z,10.69
2023-01-05T11:59:04.328Z,10.69
2023-01-05T12:00:04.339Z,10.69
2023-01-05T12:01:04.404Z,10.69
2023-01-05T12:02:03.591Z,10.62
2023-01-05T12:03:08.737Z,10.62
2023-01-05T12:04:03.465Z,10.62
2023-01-05T12:05:03.519Z,10.62
2023-01-05T12:06:03.908Z,10.62
2023-01-05T12:07:03.991Z,10.62
2023-01-05T12:08:04.003Z,10.62
2023-01-05T12:09:04.535Z,10.62
2023-01-05T12:10:03.923Z,10.56
2023-01-05T12:11:03.990Z,10.56
2023-01-05T12:12:03.994Z,10.56
2023-01-05T12:13:04.001Z,10.56
2023-01-05T12:14:04.076Z,10.56
2023-01-05T12:15:03.991Z,10.56
2023-01-05T12:16:03.988Z,10.50
2023-01-05T12:17:04.013Z,10.50
2023-01-05T12:18:04.070Z,10.56
2023-01-05T12:19:04.036Z,10.56
2023-01-05T12:20:04.021Z,10.50
2023-01-05T12:21:04.076Z,10.56
2023-01-05T12:22:03.905Z,10.56
2023-01-05T12:23:03.912Z,10.56
2023-01-05T12:24:03.991Z,10.56
2023-01-05T12:25:03.909Z,10.56
2023-01-05T12:26:04.078Z,10.56
2023-01-05T12:27:03.910Z,10.56
2023-01-05T12:28:05.452Z,10.56
2023-01-05T12:33:03.226Z,10.56
2023-01-05T12:33:35.646Z,10.56
2023-01-05T12:34:01.266Z,10.56
2023-01-05T12:34:08.651Z,10.56
2023-01-05T12:35:03.919Z,10.56
2023-01-05T12:36:03.904Z,10.56
2023-01-05T12:37:03.840Z,10.56
2023-01-05T12:38:03.751Z,10.50
2023-01-05T12:39:03.674Z,10.50
2023-01-05T12:40:03.837Z,10.50
2023-01-05T12:41:03.669Z,10.50
2023-01-05T12:42:03.754Z,10.50
2023-01-05T12:43:03.710Z,10.50
2023-01-05T12:44:03.679Z,10.50
2023-01-05T12:45:03.602Z,10.50
2023-01-05T12:46:03.594Z,10.50
2023-01-05T12:47:03.671Z,10.50
2023-01-05T12:48:03.539Z,10.50
2023-01-05T12:49:04.477Z,10.50
2023-01-05T12:50:04.391Z,10.50
2023-01-05T12:51:04.395Z,10.50
2023-01-05T12:52:06.659Z,10.50
2023-01-05T12:53:04.411Z,10.50
2023-01-05T12:54:03.520Z,10.50
2023-01-05T12:55:04.417Z,10.50
2023-01-05T12:56:04.317Z,10.50
2023-01-05T12:57:03.517Z,10.50
2023-01-05T12:58:03.843Z,10.50
2023-01-05T12:59:03.751Z,10.50
2023-01-05T13:00:03.825Z,10.50
2023-01-05T13:01:03.921Z,10.56
2023-01-05T13:02:03.933Z,10.56
2023-01-05T13:03:03.964Z,10.56